createdAt,value
2023-04-03T00:01:09.056Z,99.90
2023-04-03T00:03:40.618Z,99.90
2023-04-03T00:06:15.497Z,99.90
2023-04-03T00:08:45.758Z,99.90
2023-04-03T00:11:16.332Z,99.90
2023-04-03T00:13:47.466Z,99.90
2023-04-03T00:16:17.837Z,99.90
2023-04-03T00:18:48.137Z,99.90
2023-04-03T00:21:21.501Z,99.90
2023-04-03T00:23:52.322Z,99.90
2023-04-03T00:26:24.882Z,99.90
2023-04-03T00:28:55.367Z,99.90
2023-04-03T00:31:26.282Z,99.90
2023-04-03T00:33:56.649Z,99.90
2023-04-03T00:36:29.508Z,99.90
2023-04-03T00:38:59.859Z,99.90
2023-04-03T00:41:30.105Z,99.90
2023-04-03T00:44:00.417Z,99.90
2023-04-03T00:46:33.060Z,99.90
2023-04-03T00:49:03.380Z,99.90
2023-04-03T00:51:36.517Z,99.90
2023-04-03T00:54:12.308Z,99.90
2023-04-03T00:56:43.085Z,99.90
2023-04-03T00:59:22.495Z,99.90
2023-04-03T01:01:53.491Z,99.90
2023-04-03T01:04:33.670Z,99.90
2023-04-03T01:07:14.643Z,99.90
2023-04-03T01:09:46.651Z,99.90
2023-04-03T01:12:23.483Z,99.90
2023-04-03T01:14:56.521Z,99.90
2023-04-03T01:17:35.966Z,99.90
2023-04-03T01:21:02.854Z,99.90
2023-04-03T01:24:20.049Z,99.90
2023-04-03T01:26:50.588Z,99.90
2023-04-03T01:29:21.708Z,99.90
2023-04-03T01:31:57.723Z,99.90
2023-04-03T01:34:28.896Z,99.90
2023-04-03T01:37:00.052Z,99.90
2023-04-03T01:39:30.413Z,99.90
2023-04-03T01:42:00.786Z,99.90
2023-04-03T01:44:31.002Z,99.90
2023-04-03T01:47:03.900Z,99.90
2023-04-03T01:49:34.081Z,99.90
2023-04-03T01:52:04.348Z,99.90
2023-04-03T01:54:34.541Z,99.90
2023-04-03T01:57:04.902Z,99.90
2023-04-03T01:59:35.513Z,99.90
2023-04-03T02:02:08.577Z,99.90
2023-04-03T02:04:40.082Z,99.90
2023-04-03T02:07:11.198Z,99.90
2023-04-03T02:09:41.445Z,99.90
2023-04-03T02:12:11.840Z,99.90
2023-04-03T02:14:42.088Z,99.90
2023-04-03T02:17:14.882Z,99.90
2023-04-03T02:19:47.761Z,99.90
2023-04-03T02:22:18.288Z,99.90
2023-04-03T02:24:48.500Z,99.90
2023-04-03T02:27:18.874Z,99.90
2023-04-03T02:29:49.057Z,99.90
2023-04-03T02:32:21.907Z,99.90
2023-04-03T02:34:52.131Z,99.90
2023-04-03T02:37:22.505Z,99.90
2023-04-03T02:39:52.841Z,99.90
2023-04-03T02:42:23.053Z,99.90
2023-04-03T02:44:53.547Z,99.90
2023-04-03T02:47:26.443Z,99.90
2023-04-03T02:49:56.700Z,99.90
2023-04-03T02:52:29.743Z,99.90
2023-04-03T02:55:02.099Z,99.90
2023-04-03T02:57:32.390Z,99.90
2023-04-03T03:00:02.650Z,99.90
2023-04-03T03:02:35.584Z,99.90
2023-04-03T03:05:06.737Z,99.90
2023-04-03T03:07:37.207Z,99.90
2023-04-03T03:10:08.833Z,99.90
2023-04-03T03:12:39.065Z,99.90
2023-04-03T03:15:12.072Z,99.90
2023-04-03T03:17:45.448Z,99.90
2023-04-03T03:20:17.970Z,99.90
2023-04-03T03:22:48.583Z,99.90
2023-04-03T03:25:18.909Z,99.90
2023-04-03T03:27:49.541Z,99.90
2023-04-03T03:30:20.004Z,99.90
2023-04-03T03:32:55.535Z,99.90
2023-04-03T03:35:26.767Z,99.90
2023-04-03T03:40:41.195Z,99.90
2023-04-03T03:43:11.455Z,99.90
2023-04-03T03:45:41.646Z,99.90
2023-04-03T03:48:14.487Z,99.90
2023-04-03T03:50:44.765Z,99.90
2023-04-03T03:53:15.016Z,99.90
2023-04-03T03:55:46.074Z,99.90
2023-04-03T03:58:16.262Z,99.90
2023-04-03T04:00:46.550Z,99.90
2023-04-03T04:03:19.587Z,99.90
2023-04-03T04:05:50.999Z,99.90
2023-04-03T04:08:21.377Z,99.90
2023-04-03T04:10:51.648Z,99.90
2023-04-03T04:13:21.833Z,99.90
2023-04-03T04:15:52.030Z,99.90
2023-04-03T04:18:25.083Z,99.90
2023-04-03T04:20:55.754Z,99.90
2023-04-03T04:23:28.400Z,99.90
2023-04-03T04:25:58.819Z,99.90
2023-04-03T04:28:29.111Z,99.90
2023-04-03T04:30:59.478Z,99.90
2023-04-03T04:33:32.271Z,99.90
2023-04-03T04:36:02.529Z,99.90
2023-04-03T04:38:32.884Z,99.90
2023-04-03T04:41:03.099Z,99.90
2023-04-03T04:43:34.300Z,99.90
2023-04-03T04:46:08.061Z,99.90
2023-04-03T04:48:41.486Z,99.90
2023-04-03T04:51:12.142Z,99.90
2023-04-03T04:53:42.336Z,99.90
2023-04-03T04:56:13.148Z,99.90
2023-04-03T04:58:43.440Z,99.90
2023-04-03T05:03:56.082Z,99.90
2023-04-03T05:06:28.947Z,99.90
2023-04-03T05:08:59.172Z,99.90
2023-04-03T05:11:29.525Z,99.90
2023-04-03T05:13:59.856Z,99.90
2023-04-03T05:16:30.454Z,99.90
2023-04-03T05:19:03.386Z,99.90
2023-04-03T05:21:34.937Z,99.90
2023-04-03T05:24:06.171Z,99.90
2023-04-03T05:26:36.558Z,99.90
2023-04-03T05:29:07.446Z,99.90
2023-04-03T05:31:41.793Z,99.90
2023-04-03T05:34:15.859Z,99.90
2023-04-03T05:36:46.655Z,99.90
2023-04-03T05:39:17.275Z,99.90
2023-04-03T05:41:47.571Z,99.90
2023-04-03T05:44:20.904Z,99.90
2023-04-03T05:46:51.325Z,99.90
2023-04-03T05:49:24.341Z,99.90
2023-04-03T05:51:55.374Z,99.90
2023-04-03T05:54:29.952Z,99.90
2023-04-03T05:57:00.686Z,99.90
2023-04-03T05:59:31.244Z,99.90
2023-04-03T06:02:02.387Z,99.90
2023-04-03T06:04:35.156Z,99.90
2023-04-03T06:07:05.484Z,99.90
2023-04-03T06:09:36.516Z,99.90
2023-04-03T06:12:06.914Z,99.90
2023-04-03T06:14:37.271Z,99.90
2023-04-03T06:17:09.643Z,99.90
2023-04-03T06:19:42.748Z,99.90
2023-04-03T06:22:13.015Z,99.90
2023-04-03T06:24:44.814Z,99.90
2023-04-03T06:27:16.037Z,99.90
2023-04-03T06:29:46.560Z,99.90
2023-04-03T06:32:17.124Z,99.90
2023-04-03T06:34:49.988Z,99.90
2023-04-03T06:37:22.927Z,99.90
2023-04-03T06:39:53.112Z,99.90
2023-04-03T06:42:23.361Z,99.90
2023-04-03T06:44:53.543Z,99.90
2023-04-03T06:47:23.872Z,99.90
2023-04-03T06:49:57.484Z,99.90
2023-04-03T06:52:27.758Z,99.90
2023-04-03T06:55:00.710Z,99.90
2023-04-03T06:57:31.029Z,99.90
2023-04-03T07:00:01.349Z,99.90
2023-04-03T07:02:31.590Z,99.90
2023-04-03T07:05:04.549Z,99.90
2023-04-03T07:07:35.187Z,99.90
2023-04-03T07:10:05.768Z,99.90
2023-04-03T07:12:36.203Z,99.90
2023-04-03T07:15:07.153Z,99.90
2023-04-03T07:17:37.655Z,99.50
2023-04-03T07:20:12.764Z,96.10
2023-04-03T07:22:42.969Z,91.50
2023-04-03T07:25:13.628Z,62.10
2023-04-03T07:27:44.251Z,28.00
2023-04-03T07:30:17.149Z,1.00
2023-04-03T07:32:47.354Z,1.00
2023-04-03T07:35:20.361Z,1.00
2023-04-03T07:37:50.740Z,1.00
2023-04-03T07:40:21.312Z,99.90
2023-04-03T07:42:51.838Z,99.90
2023-04-03T07:45:24.033Z,99.90
2023-04-03T07:47:54.281Z,94.40
2023-04-03T07:50:28.468Z,20.80
2023-04-03T07:52:58.864Z,1.00
2023-04-03T07:55:29.771Z,1.00
2023-04-03T07:57:59.963Z,1.00
2023-04-03T08:00:30.842Z,1.00
2023-04-03T08:03:01.113Z,1.00
2023-04-03T08:05:34.068Z,1.00
2023-04-03T08:08:04.257Z,1.00
2023-04-03T08:10:35.038Z,1.00
2023-04-03T08:13:07.011Z,1.00
2023-04-03T08:15:38.101Z,1.00
2023-04-03T08:18:09.075Z,1.00
2023-04-03T08:20:42.932Z,1.00
2023-04-03T08:23:15.032Z,1.00
2023-04-03T08:25:46.474Z,1.00
2023-04-03T08:28:17.056Z,1.00
2023-04-03T08:30:47.569Z,1.00
2023-04-03T08:33:17.969Z,1.00
2023-04-03T08:35:50.910Z,1.00
2023-04-03T08:38:21.547Z,1.00
2023-04-03T08:40:51.777Z,1.00
2023-04-03T08:43:41.424Z,1.00
2023-04-03T08:46:18.032Z,1.00
2023-04-03T08:48:48.877Z,1.00
2023-04-03T08:51:24.642Z,1.00
2023-04-03T08:54:05.850Z,1.00
2023-04-03T08:56:38.812Z,1.00
2023-04-03T08:59:17.897Z,1.00
2023-04-03T09:01:49.469Z,1.00
2023-04-03T09:04:20.949Z,1.00
2023-04-03T09:07:02.875Z,1.00
2023-04-03T09:09:42.050Z,1.00
2023-04-03T09:12:25.166Z,1.00
2023-04-03T09:15:15.178Z,1.00
2023-04-03T09:18:01.228Z,1.00
2023-04-03T09:20:47.348Z,1.00
2023-04-03T09:23:30.580Z,1.00
2023-04-03T09:26:09.188Z,1.00
2023-04-03T09:28:50.059Z,1.00
2023-04-03T09:31:28.581Z,1.00
2023-04-03T09:34:07.941Z,1.00
2023-04-03T09:36:52.561Z,1.00
2023-04-03T09:39:31.589Z,1.00
2023-04-03T09:42:06.097Z,1.00
2023-04-03T09:44:40.696Z,1.00
2023-04-03T09:47:28.861Z,1.00
2023-04-03T09:50:24.484Z,1.00
2023-04-03T09:52:56.424Z,1.00
2023-04-03T09:55:31.464Z,1.00
2023-04-03T09:58:09.189Z,1.00
2023-04-03T10:00:45.761Z,1.00
2023-04-03T10:03:34.646Z,1.00
2023-04-03T10:06:08.630Z,1.00
2023-04-03T10:08:41.499Z,1.00
2023-04-03T10:11:19.916Z,1.00
2023-04-03T10:14:02.130Z,1.00
2023-04-03T10:16:41.897Z,1.00
2023-04-03T10:19:45.794Z,1.00
2023-04-03T10:22:28.018Z,1.00
2023-04-03T10:25:11.919Z,1.00
2023-04-03T10:28:00.938Z,1.00
2023-04-03T10:30:47.077Z,1.00
2023-04-03T10:33:39.667Z,1.00
2023-04-03T10:36:26.686Z,1.00
2023-04-03T10:39:13.233Z,1.00
2023-04-03T10:42:15.142Z,1.00
2023-04-03T10:45:20.127Z,1.00
2023-04-03T10:48:04.200Z,1.00
2023-04-03T10:50:56.794Z,1.00
2023-04-03T10:53:37.955Z,1.00
2023-04-03T10:56:17.284Z,1.00
2023-04-03T10:58:58.957Z,1.00
2023-04-03T11:01:39.581Z,1.00
2023-04-03T11:04:13.516Z,1.00
2023-04-03T11:06:52.442Z,1.00
2023-04-03T11:09:32.641Z,1.00
2023-04-03T11:12:21.068Z,1.00
2023-04-03T11:14:55.970Z,1.00
2023-04-03T11:17:37.876Z,1.00
2023-04-03T11:20:18.566Z,1.00
2023-04-03T11:22:58.040Z,1.00
2023-04-03T11:25:31.169Z,1.00
2023-04-03T11:28:04.855Z,1.00
2023-04-03T11:30:49.490Z,1.00
2023-04-03T11:33:50.174Z,1.00
2023-04-03T11:36:31.251Z,1.00
2023-04-03T11:39:28.513Z,1.00
2023-04-03T11:42:10.665Z,1.00
2023-04-03T11:44:46.799Z,1.00
2023-04-03T11:47:55.219Z,1.00
2023-04-03T11:50:48.532Z,1.00
2023-04-03T11:53:40.353Z,1.00
2023-04-03T11:56:34.458Z,1.00
2023-04-03T11:59:29.895Z,1.00
2023-04-03T12:02:02.235Z,1.00
2023-04-03T12:04:35.082Z,1.00
2023-04-03T12:07:29.485Z,1.00
2023-04-03T12:10:04.424Z,1.00
2023-04-03T12:12:43.030Z,1.00
2023-04-03T12:15:55.353Z,1.00
2023-04-03T12:18:46.804Z,1.00
2023-04-03T12:21:22.867Z,1.00
2023-04-03T12:24:09.059Z,1.00
2023-04-03T12:26:49.386Z,1.00
2023-04-03T12:29:26.820Z,1.00
2023-04-03T12:32:14.927Z,1.00
2023-04-03T12:35:06.548Z,1.00
2023-04-03T12:38:37.571Z,1.00
2023-04-03T12:41:29.993Z,1.00
2023-04-03T12:44:30.924Z,1.00
2023-04-03T12:47:12.168Z,1.00
2023-04-03T12:49:46.664Z,1.00
2023-04-03T12:52:34.370Z,1.00
2023-04-03T12:55:20.743Z,1.00
2023-04-03T12:57:51.482Z,1.00
2023-04-03T13:00:34.591Z,1.00
2023-04-03T13:03:08.022Z,1.00
2023-04-03T13:05:39.696Z,1.00
2023-04-03T13:08:20.297Z,1.00
2023-04-03T13:11:07.830Z,1.00
2023-04-03T13:13:38.956Z,1.00
2023-04-03T13:16:14.923Z,1.00
2023-04-03T13:18:45.510Z,1.00
2023-04-03T13:21:24.421Z,1.00
2023-04-03T13:24:13.848Z,1.00
2023-04-03T13:26:48.338Z,1.00
2023-04-03T13:29:31.448Z,8.00
2023-04-03T13:32:05.478Z,27.70
2023-04-03T13:34:45.995Z,30.70
2023-04-03T13:37:28.114Z,37.10
2023-04-03T13:40:06.010Z,48.80
2023-04-03T13:42:42.676Z,37.10
2023-04-03T13:45:32.013Z,28.10
2023-04-03T13:48:24.249Z,29.40
2023-04-03T13:51:07.076Z,26.70
2023-04-03T13:53:47.344Z,32.90
2023-04-03T13:56:28.194Z,31.30
2023-04-03T13:59:30.754Z,50.30
2023-04-03T14:02:21.594Z,51.80
2023-04-03T14:05:09.466Z,56.20
2023-04-03T14:07:39.732Z,51.00
2023-04-03T14:10:13.427Z,43.50
2023-04-03T14:12:43.883Z,46.10
2023-04-03T14:15:25.893Z,51.60
2023-04-03T14:17:56.988Z,46.10
2023-04-03T14:20:30.050Z,48.80
2023-04-03T14:23:01.689Z,70.50
2023-04-03T14:25:31.866Z,76.00
2023-04-03T14:28:02.255Z,90.60
2023-04-03T14:30:38.365Z,91.20
2023-04-03T14:33:10.521Z,96.50
2023-04-03T14:35:41.339Z,99.90
2023-04-03T14:38:26.890Z,99.90
2023-04-03T14:41:06.329Z,99.90
2023-04-03T14:43:44.925Z,99.90
2023-04-03T14:46:26.397Z,99.90
2023-04-03T14:48:58.143Z,99.90
2023-04-03T14:51:28.797Z,99.90
2023-04-03T14:53:59.292Z,99.90
2023-04-03T14:56:33.436Z,99.90
2023-04-03T14:59:05.535Z,88.60
2023-04-03T15:01:38.452Z,90.60
2023-04-03T15:04:16.438Z,99.90
2023-04-03T15:06:47.019Z,99.90
2023-04-03T15:09:26.863Z,99.90
2023-04-03T15:11:59.597Z,99.90
2023-04-03T15:14:37.073Z,99.90
2023-04-03T15:17:22.993Z,99.90
2023-04-03T15:19:53.305Z,99.90
2023-04-03T15:22:24.307Z,99.90
2023-04-03T15:24:56.076Z,99.90
2023-04-03T15:27:26.259Z,99.90
2023-04-03T15:29:56.549Z,99.90
2023-04-03T15:32:31.334Z,99.90
2023-04-03T15:35:08.672Z,99.90
2023-04-03T15:37:38.837Z,95.50
2023-04-03T15:40:11.716Z,91.60
2023-04-03T15:42:45.206Z,99.90
2023-04-03T15:45:16.743Z,99.90
2023-04-03T15:47:49.635Z,99.90
2023-04-03T15:50:20.064Z,99.90
2023-04-03T15:52:55.081Z,99.90
2023-04-03T15:55:26.358Z,94.70
2023-04-03T15:57:56.637Z,99.90
2023-04-03T16:00:28.667Z,99.90
2023-04-03T16:03:10.637Z,99.90
2023-04-03T16:05:44.500Z,99.90
2023-04-03T16:08:15.717Z,99.90
2023-04-03T16:11:12.122Z,99.90
2023-04-03T16:13:43.205Z,99.90
2023-04-03T16:16:16.229Z,99.90
2023-04-03T16:18:50.129Z,99.90
2023-04-03T16:21:21.593Z,99.90
2023-04-03T16:23:51.944Z,99.90
2023-04-03T16:26:22.344Z,99.90
2023-04-03T16:28:52.560Z,99.90
2023-04-03T16:31:23.898Z,99.90
2023-04-03T16:33:58.192Z,99.90
2023-04-03T16:36:29.810Z,99.90
2023-04-03T16:39:00.071Z,99.90
2023-04-03T16:41:30.306Z,99.90
2023-04-03T16:44:00.530Z,99.90
2023-04-03T16:46:30.874Z,99.90
2023-04-03T16:49:03.771Z,99.90
2023-04-03T16:51:34.144Z,99.90
2023-04-03T16:54:04.359Z,99.90
2023-04-03T16:56:34.716Z,1.00
2023-04-03T16:59:04.897Z,1.00
2023-04-03T17:01:35.626Z,1.00
2023-04-03T17:04:10.855Z,1.00
2023-04-03T17:06:41.417Z,1.00
2023-04-03T17:09:14.203Z,1.00
2023-04-03T17:11:47.434Z,1.00
2023-04-03T17:14:18.817Z,1.00
2023-04-03T17:16:49.230Z,99.90
2023-04-03T17:19:24.234Z,29.70
2023-04-03T17:21:58.624Z,1.00
2023-04-03T17:24:29.896Z,1.00
2023-04-03T17:27:00.157Z,1.00
2023-04-03T17:29:30.597Z,1.00
2023-04-03T17:32:02.130Z,1.00
2023-04-03T17:34:36.912Z,1.00
2023-04-03T17:37:07.638Z,1.00
2023-04-03T17:39:40.442Z,1.00
2023-04-03T17:42:10.724Z,1.00
2023-04-03T17:44:40.973Z,5.40
2023-04-03T17:47:16.905Z,99.90
2023-04-03T17:49:52.023Z,99.90
2023-04-03T17:52:25.569Z,99.90
2023-04-03T17:54:55.887Z,99.90
2023-04-03T17:57:26.561Z,99.90
2023-04-03T17:59:56.697Z,10.60
2023-04-03T18:02:27.057Z,1.00
2023-04-03T18:05:00.037Z,1.00
2023-04-03T18:07:31.681Z,1.00
2023-04-03T18:10:05.622Z,1.00
2023-04-03T18:12:41.081Z,14.90
2023-04-03T18:15:15.941Z,32.00
2023-04-03T18:17:46.632Z,99.90
2023-04-03T18:20:20.057Z,99.90
2023-04-03T18:22:50.928Z,99.90
2023-04-03T18:25:21.404Z,99.90
2023-04-03T18:27:53.359Z,1.00
2023-04-03T18:30:23.622Z,1.00
2023-04-03T18:32:56.277Z,1.00
2023-04-03T18:35:29.237Z,1.00
2023-04-03T18:37:59.469Z,1.00
2023-04-03T18:40:29.878Z,1.00
2023-04-03T18:43:00.160Z,1.00
2023-04-03T18:45:31.793Z,1.00
2023-04-03T18:48:02.951Z,59.00
2023-04-03T18:50:35.943Z,99.90
2023-04-03T18:53:06.196Z,1.00
2023-04-03T18:55:36.432Z,1.00
2023-04-03T18:58:06.812Z,1.00
2023-04-03T19:00:37.444Z,1.00
2023-04-03T19:03:08.299Z,99.90
2023-04-03T19:05:41.640Z,99.90
2023-04-03T19:08:12.272Z,99.90
2023-04-03T19:10:42.533Z,99.90
2023-04-03T19:13:15.460Z,99.90
2023-04-03T19:15:46.428Z,99.90
2023-04-03T19:18:19.405Z,1.00
2023-04-03T19:20:54.508Z,1.00
2023-04-03T19:23:24.945Z,1.00
2023-04-03T19:26:02.596Z,99.90
2023-04-03T19:28:33.045Z,1.00
2023-04-03T19:31:04.889Z,60.80
2023-04-03T19:33:35.060Z,1.00
2023-04-03T19:36:08.323Z,99.90
2023-04-03T19:38:39.024Z,1.00
2023-04-03T19:41:11.812Z,1.00
2023-04-03T19:43:42.992Z,1.00
2023-04-03T19:46:13.946Z,99.90
2023-04-03T19:48:44.178Z,1.00
2023-04-03T19:51:17.248Z,1.00
2023-04-03T19:53:48.714Z,99.90
2023-04-03T19:56:21.389Z,1.00
2023-04-03T19:58:54.360Z,1.00
2023-04-03T20:01:27.963Z,1.00
2023-04-03T20:04:02.898Z,1.00
2023-04-03T20:06:38.780Z,1.00
2023-04-03T20:09:09.018Z,99.90
2023-04-03T20:11:40.291Z,99.90
2023-04-03T20:14:10.938Z,1.00
2023-04-03T20:16:42.227Z,1.00
2023-04-03T20:19:12.629Z,99.90
2023-04-03T20:21:45.455Z,29.20
2023-04-03T20:24:16.569Z,99.90
2023-04-03T20:26:48.028Z,99.60
2023-04-03T20:29:19.423Z,99.90
2023-04-03T20:31:50.678Z,99.90
2023-04-03T20:34:22.298Z,99.90
2023-04-03T20:36:55.454Z,99.90
2023-04-03T20:39:25.787Z,99.90
2023-04-03T20:41:56.807Z,1.00
2023-04-03T20:44:26.993Z,99.90
2023-04-03T20:46:58.399Z,1.00
2023-04-03T20:49:28.731Z,99.90
2023-04-03T20:52:01.557Z,1.00
2023-04-03T20:54:31.778Z,1.00
2023-04-03T20:57:02.691Z,1.00
2023-04-03T20:59:34.244Z,1.00
2023-04-03T21:02:06.905Z,1.00
2023-04-03T21:04:45.356Z,1.00
2023-04-03T21:08:00.620Z,99.90
2023-04-03T21:11:16.300Z,99.90
2023-04-03T21:14:33.629Z,1.00
2023-04-03T21:17:04.079Z,99.90
2023-04-03T21:19:43.267Z,1.00
2023-04-03T21:22:13.767Z,99.90
2023-04-03T21:24:44.078Z,1.00
2023-04-03T21:27:14.990Z,1.00
2023-04-03T21:29:45.544Z,1.00
2023-04-03T21:32:15.850Z,1.00
2023-04-03T21:34:48.730Z,1.00
2023-04-03T21:37:19.235Z,1.00
2023-04-03T21:39:49.402Z,1.00
2023-04-03T21:42:23.981Z,1.00
2023-04-03T21:44:54.201Z,1.00
2023-04-03T21:47:24.367Z,1.00
2023-04-03T21:49:57.234Z,1.00
2023-04-03T21:52:27.630Z,1.00
2023-04-03T21:54:58.026Z,1.00
2023-04-03T21:57:31.433Z,1.00
2023-04-03T22:00:02.981Z,1.00
2023-04-03T22:02:34.158Z,1.00
2023-04-03T22:05:07.763Z,1.00
2023-04-03T22:07:38.207Z,1.00
2023-04-03T22:10:09.833Z,1.00
2023-04-03T22:12:40.033Z,1.00
2023-04-03T22:15:12.610Z,1.00
2023-04-03T22:17:42.854Z,1.00
2023-04-03T22:20:16.329Z,1.00
2023-04-03T22:22:46.734Z,1.00
2023-04-03T22:25:17.367Z,1.00
2023-04-03T22:27:49.898Z,1.00
2023-04-03T22:30:20.086Z,1.00
2023-04-03T22:32:50.635Z,1.00
2023-04-03T22:35:24.271Z,1.00
2023-04-03T22:37:54.640Z,1.00
2023-04-03T22:40:24.924Z,1.00
2023-04-03T22:42:55.228Z,1.00
2023-04-03T22:45:25.427Z,1.00
2023-04-03T22:47:59.019Z,1.00
2023-04-03T22:50:31.976Z,1.00
2023-04-03T22:53:02.500Z,1.00
2023-04-03T22:55:32.648Z,1.00
2023-04-03T22:58:02.862Z,1.00
2023-04-03T23:00:33.280Z,1.00
2023-04-03T23:03:04.798Z,1.00
2023-04-03T23:05:37.644Z,1.00
2023-04-03T23:08:07.953Z,1.00
2023-04-03T23:10:38.301Z,1.00
2023-04-03T23:13:08.825Z,1.00
2023-04-03T23:15:39.006Z,1.00
2023-04-03T23:18:10.129Z,1.00
2023-04-03T23:20:42.978Z,1.00
2023-04-03T23:23:13.289Z,1.00
2023-04-03T23:25:43.597Z,1.00
2023-04-03T23:28:13.880Z,1.00
2023-04-03T23:30:46.838Z,1.00
2023-04-03T23:33:16.998Z,1.00
2023-04-03T23:35:50.424Z,1.00
2023-04-03T23:38:21.098Z,1.00
2023-04-03T23:40:51.344Z,1.00
2023-04-03T23:43:21.790Z,1.00
2023-04-03T23:45:52.024Z,1.00
2023-04-03T23:48:22.357Z,1.00
2023-04-03T23:50:55.208Z,1.00
2023-04-03T23:53:25.773Z,1.00
2023-04-03T23:55:55.980Z,1.00
2023-04-03T23:58:26.460Z,1.00
